Portada
METAR-TAF:

METAR-TAF

Aeropuertos :

Aeropuerto del condado Anoka-Blaine

Minneapolis / Blaine, Minnesota, Estados Unidos

latitud: 45-09N, longitud: 093-13W, altitud: 278 m

Observación

El informe se hizo hace 35 minutos, a las 23:45 UTC
Viento 16 kt del oeste-noroeste con ráfagas de 21 kt
Temperatura 23°C
Humedad 29%
Presión 1013 hPa
Visibilidad: 16.1 km
Nubes dispersas a una altura de 20000 ft

METAR: KANE 282345Z 30016G21KT 10SM SCT200 23/04 A2991

Hora: 19:20 (00:20 UTC)


TAF: falta

Observaciones y pronósticos meteorológicos de más de 4000 aeropuertos (mensajes METAR y TAF).

Los puntos amarillos y rojos representan las estaciones disponibles.

Ponga el ratón en el punto deseado para ver el nombre de la estación.

Haga clic para ver las observaciones y los pronósticos meteorológicos.

Para cambiar el mapa : haga clic en los botones verdes con una cruz de color negro para hacer un zoom, en el botón verde con un guión para alejar o en las flechas verdes para mapas adyacentes.


METAR-TAF: